»·PEaware :: N822JH KPRB-KSBP

N822JH :: KPRB-KSBP

FLIGHT INFORMATION

Flight Status: Arrived
Operator: Privately registered:
United States
More flights under this callsign
Pilot: Aleksandr Z. (18023)
Aircraft: PIPER PA-24 COMMANCHE
(PA24)
More flights by this aircraft type
Origin: KPRB Paso Robles Mun
United States
Destination: KSBP San Luis Co Regl
United States
More flights between these airports :: More routes between these airports
Route:
File this flight plan on PilotEdge
Remarks: Pattern work, A2A Paper24 Comanche250
Altitude:
(Current/Filed)
1,200ft
Speed:
(Current/Filed)
120kts
Departed: 05-Feb-19 08:45 AM
Arrived: 05-Feb-19 09:02 AM
Distance/Time
Traveled:
26nm/0:17
Distance/Time
To Go:
Arrived

Flight Plot

Page will automatically refresh every two minutes.


Map Options




Map Legend


Flown Route
Filed Route
Departure Airport
Arrival Airport
Navaid (VOR, NDB)
Fix

Horizontal Profiles

Position Reports

Time Latitude Longitude Heading Altitude Ground
Speed
05-Feb-19 08:18 35.238258 -120.645789 269 215ft 0kts
05-Feb-19 08:19 35.238258 -120.645789 269 215ft 0kts
05-Feb-19 08:20 35.238258 -120.645789 269 215ft 0kts
05-Feb-19 08:21 35.238258 -120.645789 269 215ft 0kts
05-Feb-19 08:22 35.238258 -120.645789 269 215ft 0kts
05-Feb-19 08:23 35.238258 -120.645789 269 215ft 0kts
05-Feb-19 08:24 35.238258 -120.645789 269 215ft 0kts
05-Feb-19 08:25 35.238258 -120.645789 269 215ft 0kts
05-Feb-19 08:26 35.238258 -120.645789 269 215ft 0kts
05-Feb-19 08:27 35.238258 -120.645790 269 215ft 0kts
05-Feb-19 08:28 35.238258 -120.645792 269 215ft 0kts
05-Feb-19 08:29 35.238097 -120.644768 127 215ft 13kts
05-Feb-19 08:30 35.237674 -120.643153 44 215ft 6kts
05-Feb-19 08:31 35.237782 -120.642950 71 215ft 1kts
05-Feb-19 08:32 35.237685 -120.639755 123 215ft 12kts
05-Feb-19 08:33 35.234655 -120.634421 124 215ft 22kts
05-Feb-19 08:34 35.233261 -120.632640 213 215ft 0kts
05-Feb-19 08:35 35.233250 -120.632649 213 215ft 0kts
05-Feb-19 08:36 35.233246 -120.632652 213 215ft 0kts
05-Feb-19 08:37 35.233242 -120.632656 213 215ft 0kts
05-Feb-19 08:38 35.233231 -120.632665 213 215ft 0kts
05-Feb-19 08:39 35.233229 -120.632666 213 215ft 0kts
05-Feb-19 08:40 35.233227 -120.632668 213 215ft 0kts
05-Feb-19 08:41 35.233225 -120.632669 213 215ft 0kts
05-Feb-19 08:42 35.232872 -120.633287 314 215ft 10kts
05-Feb-19 08:43 35.233031 -120.633498 299 215ft 0kts
05-Feb-19 08:44 35.241883 -120.649019 306 533ft 124kts
05-Feb-19 08:45 35.238381 -120.676583 202 1280ft 98kts
05-Feb-19 08:46 35.219424 -120.655374 127 1279ft 101kts
05-Feb-19 08:47 35.202643 -120.626281 124 1152ft 94kts
05-Feb-19 08:48 35.216212 -120.609220 2 752ft 86kts
05-Feb-19 08:49 35.231376 -120.630695 307 300ft 78kts
05-Feb-19 08:50 35.245113 -120.655026 305 662ft 109kts
05-Feb-19 08:51 35.232344 -120.675893 199 1266ft 87kts
05-Feb-19 08:52 35.216946 -120.652652 120 1234ft 95kts
05-Feb-19 08:53 35.203696 -120.624673 84 1201ft 92kts
05-Feb-19 08:54 35.223113 -120.615608 303 714ft 93kts
05-Feb-19 08:55 35.235470 -120.637909 306 215ft 60kts
05-Feb-19 08:56 35.246890 -120.666682 226 1186ft 93kts
05-Feb-19 08:57 35.226154 -120.670630 123 1198ft 83kts
05-Feb-19 08:58 35.211457 -120.643111 126 1196ft 98kts
05-Feb-19 08:59 35.210329 -120.618980 30 1000ft 85kts
05-Feb-19 09:00 35.228965 -120.626610 307 405ft 87kts
05-Feb-19 09:01 35.237357 -120.640082 33 215ft 11kts
05-Feb-19 09:02 35.237515 -120.640003 16 215ft 0kts
05-Feb-19 09:03 35.237497 -120.639426 127 215ft 14kts
05-Feb-19 09:04 35.236330 -120.636691 333 215ft 7kts
05-Feb-19 09:05 35.236372 -120.636688 35 215ft 0kts
05-Feb-19 09:06 35.236373 -120.636688 35 215ft 0kts
05-Feb-19 09:07 35.236373 -120.636688 35 215ft 0kts
05-Feb-19 09:08 35.236373 -120.636688 35 215ft 0kts
05-Feb-19 09:09 35.236373 -120.636688 35 215ft 0kts

Navigation Log

Ident Type
Flight plan parsing failed, navigation log unavailable